sensor_id;sensor_type;location;lat;lon;timestamp;P1;durP1;ratioP1;P2;durP2;ratioP2
51475;SDS011;37554;50.362;7.568;2022-07-23T00:00:30;5.90;;;5.30;;
51475;SDS011;37554;50.362;7.568;2022-07-23T00:02:56;5.97;;;5.38;;
51475;SDS011;37554;50.362;7.568;2022-07-23T00:05:22;5.18;;;4.82;;
51475;SDS011;37554;50.362;7.568;2022-07-23T00:07:47;6.20;;;5.60;;
51475;SDS011;37554;50.362;7.568;2022-07-23T00:10:13;6.13;;;5.63;;
51475;SDS011;37554;50.362;7.568;2022-07-23T00:12:39;5.55;;;5.05;;
51475;SDS011;37554;50.362;7.568;2022-07-23T00:15:05;6.00;;;5.35;;
51475;SDS011;37554;50.362;7.568;2022-07-23T00:17:32;5.57;;;5.13;;
51475;SDS011;37554;50.362;7.568;2022-07-23T00:19:58;6.25;;;5.70;;
51475;SDS011;37554;50.362;7.568;2022-07-23T00:22:24;5.90;;;5.13;;
51475;SDS011;37554;50.362;7.568;2022-07-23T00:24:50;6.07;;;5.57;;
51475;SDS011;37554;50.362;7.568;2022-07-23T00:27:15;6.13;;;5.53;;
51475;SDS011;37554;50.362;7.568;2022-07-23T00:29:41;5.80;;;5.28;;
51475;SDS011;37554;50.362;7.568;2022-07-23T00:32:07;6.43;;;5.82;;
51475;SDS011;37554;50.362;7.568;2022-07-23T00:34:32;5.65;;;5.05;;
51475;SDS011;37554;50.362;7.568;2022-07-23T00:36:58;5.60;;;5.10;;
51475;SDS011;37554;50.362;7.568;2022-07-23T00:39:23;5.68;;;5.18;;
51475;SDS011;37554;50.362;7.568;2022-07-23T00:41:51;6.20;;;5.60;;
51475;SDS011;37554;50.362;7.568;2022-07-23T00:44:21;6.40;;;5.30;;
51475;SDS011;37554;50.362;7.568;2022-07-23T00:46:49;5.90;;;5.40;;
51475;SDS011;37554;50.362;7.568;2022-07-23T00:49:19;6.05;;;5.50;;
51475;SDS011;37554;50.362;7.568;2022-07-23T00:51:46;6.38;;;5.47;;
51475;SDS011;37554;50.362;7.568;2022-07-23T00:54:13;5.38;;;4.88;;
51475;SDS011;37554;50.362;7.568;2022-07-23T00:56:39;5.97;;;5.43;;
51475;SDS011;37554;50.362;7.568;2022-07-23T00:59:05;5.82;;;5.28;;
51475;SDS011;37554;50.362;7.568;2022-07-23T01:01:32;5.63;;;5.22;;
51475;SDS011;37554;50.362;7.568;2022-07-23T01:03:57;6.15;;;5.55;;
51475;SDS011;37554;50.362;7.568;2022-07-23T01:06:23;6.35;;;5.78;;
51475;SDS011;37554;50.362;7.568;2022-07-23T01:08:49;6.05;;;5.45;;
51475;SDS011;37554;50.362;7.568;2022-07-23T01:11:14;5.95;;;5.43;;
51475;SDS011;37554;50.362;7.568;2022-07-23T01:13:42;6.32;;;5.72;;
51475;SDS011;37554;50.362;7.568;2022-07-23T01:16:08;6.13;;;5.57;;
51475;SDS011;37554;50.362;7.568;2022-07-23T01:18:34;6.50;;;5.95;;
51475;SDS011;37554;50.362;7.568;2022-07-23T01:20:59;6.30;;;5.80;;
51475;SDS011;37554;50.362;7.568;2022-07-23T01:23:25;6.68;;;6.07;;
51475;SDS011;37554;50.362;7.568;2022-07-23T01:25:54;5.95;;;5.45;;
51475;SDS011;37554;50.362;7.568;2022-07-23T01:28:20;6.07;;;5.57;;
51475;SDS011;37554;50.362;7.568;2022-07-23T01:30:47;5.68;;;5.18;;
51475;SDS011;37554;50.362;7.568;2022-07-23T01:33:14;6.15;;;5.65;;
51475;SDS011;37554;50.362;7.568;2022-07-23T01:35:40;6.43;;;5.82;;
51475;SDS011;37554;50.362;7.568;2022-07-23T01:38:06;6.03;;;5.53;;
51475;SDS011;37554;50.362;7.568;2022-07-23T01:40:31;6.00;;;5.40;;
51475;SDS011;37554;50.362;7.568;2022-07-23T01:42:57;6.45;;;5.75;;
51475;SDS011;37554;50.362;7.568;2022-07-23T01:45:22;6.00;;;5.40;;
51475;SDS011;37554;50.362;7.568;2022-07-23T01:47:49;8.20;;;5.78;;
51475;SDS011;37554;50.362;7.568;2022-07-23T01:50:14;6.57;;;5.97;;
51475;SDS011;37554;50.362;7.568;2022-07-23T01:52:40;6.00;;;5.50;;
51475;SDS011;37554;50.362;7.568;2022-07-23T01:55:06;6.25;;;5.65;;
51475;SDS011;37554;50.362;7.568;2022-07-23T01:57:32;6.05;;;5.55;;
51475;SDS011;37554;50.362;7.568;2022-07-23T01:59:58;6.18;;;5.57;;
51475;SDS011;37554;50.362;7.568;2022-07-23T02:02:24;6.28;;;5.68;;
51475;SDS011;37554;50.362;7.568;2022-07-23T02:04:49;6.45;;;5.78;;
51475;SDS011;37554;50.362;7.568;2022-07-23T02:07:15;6.90;;;6.13;;
51475;SDS011;37554;50.362;7.568;2022-07-23T02:09:40;6.65;;;5.88;;
51475;SDS011;37554;50.362;7.568;2022-07-23T02:12:06;6.43;;;5.82;;
51475;SDS011;37554;50.362;7.568;2022-07-23T02:14:32;6.00;;;5.50;;
51475;SDS011;37554;50.362;7.568;2022-07-23T02:16:58;6.15;;;5.65;;
51475;SDS011;37554;50.362;7.568;2022-07-23T02:19:24;6.32;;;5.72;;
51475;SDS011;37554;50.362;7.568;2022-07-23T02:21:49;6.32;;;5.72;;
51475;SDS011;37554;50.362;7.568;2022-07-23T02:24:15;6.10;;;5.60;;
51475;SDS011;37554;50.362;7.568;2022-07-23T02:26:41;6.65;;;6.05;;
51475;SDS011;37554;50.362;7.568;2022-07-23T02:29:07;5.75;;;5.35;;
51475;SDS011;37554;50.362;7.568;2022-07-23T02:31:33;6.25;;;5.43;;
51475;SDS011;37554;50.362;7.568;2022-07-23T02:33:59;6.20;;;5.60;;
51475;SDS011;37554;50.362;7.568;2022-07-23T02:36:24;5.80;;;5.40;;
51475;SDS011;37554;50.362;7.568;2022-07-23T02:38:50;6.28;;;5.68;;
51475;SDS011;37554;50.362;7.568;2022-07-23T02:41:16;5.72;;;5.22;;
51475;SDS011;37554;50.362;7.568;2022-07-23T02:43:41;6.38;;;5.78;;
51475;SDS011;37554;50.362;7.568;2022-07-23T02:46:07;5.30;;;4.90;;
51475;SDS011;37554;50.362;7.568;2022-07-23T02:48:33;6.40;;;5.68;;
51475;SDS011;37554;50.362;7.568;2022-07-23T02:50:59;6.30;;;5.80;;
51475;SDS011;37554;50.362;7.568;2022-07-23T02:53:24;8.45;;;5.90;;
51475;SDS011;37554;50.362;7.568;2022-07-23T02:55:50;6.03;;;5.53;;
51475;SDS011;37554;50.362;7.568;2022-07-23T02:58:17;6.18;;;5.60;;
51475;SDS011;37554;50.362;7.568;2022-07-23T03:00:42;5.82;;;5.32;;
51475;SDS011;37554;50.362;7.568;2022-07-23T03:03:08;5.90;;;5.43;;
51475;SDS011;37554;50.362;7.568;2022-07-23T03:05:34;6.20;;;5.60;;
51475;SDS011;37554;50.362;7.568;2022-07-23T03:07:59;5.72;;;5.30;;
51475;SDS011;37554;50.362;7.568;2022-07-23T03:10:25;5.13;;;4.72;;
51475;SDS011;37554;50.362;7.568;2022-07-23T03:12:51;5.93;;;5.43;;
51475;SDS011;37554;50.362;7.568;2022-07-23T03:15:17;6.65;;;5.28;;
51475;SDS011;37554;50.362;7.568;2022-07-23T03:17:42;6.47;;;5.70;;
51475;SDS011;37554;50.362;7.568;2022-07-23T03:20:08;6.28;;;5.63;;
51475;SDS011;37554;50.362;7.568;2022-07-23T03:22:34;6.30;;;5.53;;
51475;SDS011;37554;50.362;7.568;2022-07-23T03:25:00;6.50;;;5.90;;
51475;SDS011;37554;50.362;7.568;2022-07-23T03:27:27;7.20;;;5.43;;
51475;SDS011;37554;50.362;7.568;2022-07-23T03:29:54;5.50;;;5.00;;
51475;SDS011;37554;50.362;7.568;2022-07-23T03:32:21;6.28;;;5.78;;
51475;SDS011;37554;50.362;7.568;2022-07-23T03:34:47;6.15;;;5.65;;
51475;SDS011;37554;50.362;7.568;2022-07-23T03:37:13;6.13;;;5.40;;
51475;SDS011;37554;50.362;7.568;2022-07-23T03:39:39;8.95;;;5.93;;
51475;SDS011;37554;50.362;7.568;2022-07-23T03:42:05;6.43;;;5.82;;
51475;SDS011;37554;50.362;7.568;2022-07-23T03:44:31;6.15;;;5.55;;
51475;SDS011;37554;50.362;7.568;2022-07-23T03:46:57;6.63;;;5.80;;
51475;SDS011;37554;50.362;7.568;2022-07-23T03:49:22;5.80;;;5.32;;
51475;SDS011;37554;50.362;7.568;2022-07-23T03:51:48;6.55;;;6.05;;
51475;SDS011;37554;50.362;7.568;2022-07-23T03:54:14;5.97;;;5.45;;
51475;SDS011;37554;50.362;7.568;2022-07-23T03:56:39;7.18;;;6.47;;
51475;SDS011;37554;50.362;7.568;2022-07-23T03:59:05;6.63;;;6.13;;
51475;SDS011;37554;50.362;7.568;2022-07-23T04:01:31;6.63;;;5.88;;
51475;SDS011;37554;50.362;7.568;2022-07-23T04:03:57;7.35;;;6.57;;
51475;SDS011;37554;50.362;7.568;2022-07-23T04:06:22;8.02;;;6.50;;
51475;SDS011;37554;50.362;7.568;2022-07-23T04:08:48;7.40;;;6.75;;
51475;SDS011;37554;50.362;7.568;2022-07-23T04:11:14;7.50;;;6.80;;
51475;SDS011;37554;50.362;7.568;2022-07-23T04:13:39;7.80;;;7.10;;
51475;SDS011;37554;50.362;7.568;2022-07-23T04:16:05;7.53;;;6.88;;
51475;SDS011;37554;50.362;7.568;2022-07-23T04:18:31;7.18;;;6.47;;
51475;SDS011;37554;50.362;7.568;2022-07-23T04:20:56;8.10;;;7.07;;
51475;SDS011;37554;50.362;7.568;2022-07-23T04:23:22;7.82;;;7.05;;
51475;SDS011;37554;50.362;7.568;2022-07-23T04:25:48;7.65;;;6.93;;
51475;SDS011;37554;50.362;7.568;2022-07-23T04:28:14;8.40;;;7.55;;
51475;SDS011;37554;50.362;7.568;2022-07-23T04:30:40;7.88;;;7.07;;
51475;SDS011;37554;50.362;7.568;2022-07-23T04:33:05;7.65;;;7.05;;
51475;SDS011;37554;50.362;7.568;2022-07-23T04:35:32;7.93;;;7.22;;
51475;SDS011;37554;50.362;7.568;2022-07-23T04:37:58;8.05;;;7.28;;
51475;SDS011;37554;50.362;7.568;2022-07-23T04:40:24;9.13;;;8.20;;
51475;SDS011;37554;50.362;7.568;2022-07-23T04:42:50;11.48;;;7.20;;
51475;SDS011;37554;50.362;7.568;2022-07-23T04:45:16;8.80;;;7.63;;
51475;SDS011;37554;50.362;7.568;2022-07-23T04:47:42;8.40;;;7.68;;
51475;SDS011;37554;50.362;7.568;2022-07-23T04:50:08;9.10;;;8.25;;
51475;SDS011;37554;50.362;7.568;2022-07-23T04:52:33;9.48;;;7.93;;
51475;SDS011;37554;50.362;7.568;2022-07-23T04:54:59;8.90;;;8.07;;
51475;SDS011;37554;50.362;7.568;2022-07-23T04:57:25;9.13;;;8.32;;
51475;SDS011;37554;50.362;7.568;2022-07-23T04:59:50;9.75;;;8.57;;
51475;SDS011;37554;50.362;7.568;2022-07-23T05:02:16;8.98;;;8.23;;
51475;SDS011;37554;50.362;7.568;2022-07-23T05:04:42;8.93;;;7.88;;
51475;SDS011;37554;50.362;7.568;2022-07-23T05:07:07;9.50;;;8.60;;
51475;SDS011;37554;50.362;7.568;2022-07-23T05:09:33;9.38;;;8.57;;
51475;SDS011;37554;50.362;7.568;2022-07-23T05:11:59;8.68;;;7.88;;
51475;SDS011;37554;50.362;7.568;2022-07-23T05:14:25;9.60;;;8.80;;
51475;SDS011;37554;50.362;7.568;2022-07-23T05:16:50;9.65;;;8.75;;
51475;SDS011;37554;50.362;7.568;2022-07-23T05:19:16;9.93;;;8.90;;
51475;SDS011;37554;50.362;7.568;2022-07-23T05:21:41;9.68;;;8.77;;
51475;SDS011;37554;50.362;7.568;2022-07-23T05:24:07;9.75;;;8.82;;
51475;SDS011;37554;50.362;7.568;2022-07-23T05:26:33;9.57;;;8.57;;
51475;SDS011;37554;50.362;7.568;2022-07-23T05:28:58;9.07;;;8.20;;
51475;SDS011;37554;50.362;7.568;2022-07-23T05:31:24;10.20;;;8.60;;
51475;SDS011;37554;50.362;7.568;2022-07-23T05:33:50;9.95;;;8.80;;
51475;SDS011;37554;50.362;7.568;2022-07-23T05:36:15;9.68;;;8.77;;
51475;SDS011;37554;50.362;7.568;2022-07-23T05:38:41;10.40;;;9.30;;
51475;SDS011;37554;50.362;7.568;2022-07-23T05:41:07;10.02;;;9.02;;
51475;SDS011;37554;50.362;7.568;2022-07-23T05:43:32;9.63;;;8.63;;
51475;SDS011;37554;50.362;7.568;2022-07-23T05:45:58;9.95;;;8.93;;
51475;SDS011;37554;50.362;7.568;2022-07-23T05:48:23;9.20;;;8.20;;
51475;SDS011;37554;50.362;7.568;2022-07-23T05:50:49;10.45;;;9.10;;
51475;SDS011;37554;50.362;7.568;2022-07-23T05:53:15;10.23;;;8.95;;
51475;SDS011;37554;50.362;7.568;2022-07-23T05:55:40;11.57;;;8.70;;
51475;SDS011;37554;50.362;7.568;2022-07-23T05:58:06;9.13;;;8.23;;
51475;SDS011;37554;50.362;7.568;2022-07-23T06:00:31;8.98;;;8.15;;
51475;SDS011;37554;50.362;7.568;2022-07-23T06:02:57;8.63;;;7.82;;
51475;SDS011;37554;50.362;7.568;2022-07-23T06:05:23;8.77;;;8.02;;
51475;SDS011;37554;50.362;7.568;2022-07-23T06:07:49;8.27;;;7.47;;
51475;SDS011;37554;50.362;7.568;2022-07-23T06:10:15;8.50;;;7.70;;
51475;SDS011;37554;50.362;7.568;2022-07-23T06:12:42;8.75;;;7.72;;
51475;SDS011;37554;50.362;7.568;2022-07-23T06:15:08;8.52;;;7.63;;
51475;SDS011;37554;50.362;7.568;2022-07-23T06:17:34;7.72;;;7.03;;
51475;SDS011;37554;50.362;7.568;2022-07-23T06:20:00;7.97;;;7.18;;
51475;SDS011;37554;50.362;7.568;2022-07-23T06:22:26;8.80;;;7.53;;
51475;SDS011;37554;50.362;7.568;2022-07-23T06:24:51;7.13;;;6.53;;
51475;SDS011;37554;50.362;7.568;2022-07-23T06:27:17;7.95;;;7.00;;
51475;SDS011;37554;50.362;7.568;2022-07-23T06:29:43;7.80;;;7.00;;
51475;SDS011;37554;50.362;7.568;2022-07-23T06:32:09;8.38;;;7.30;;
51475;SDS011;37554;50.362;7.568;2022-07-23T06:34:34;7.28;;;6.57;;
51475;SDS011;37554;50.362;7.568;2022-07-23T06:37:00;8.40;;;7.70;;
51475;SDS011;37554;50.362;7.568;2022-07-23T06:39:26;9.73;;;7.25;;
51475;SDS011;37554;50.362;7.568;2022-07-23T06:41:52;7.80;;;7.05;;
51475;SDS011;37554;50.362;7.568;2022-07-23T06:44:17;7.85;;;7.15;;
51475;SDS011;37554;50.362;7.568;2022-07-23T06:46:43;8.80;;;7.90;;
51475;SDS011;37554;50.362;7.568;2022-07-23T06:49:09;9.65;;;7.55;;
51475;SDS011;37554;50.362;7.568;2022-07-23T06:51:35;9.55;;;7.82;;
51475;SDS011;37554;50.362;7.568;2022-07-23T06:54:01;9.90;;;8.60;;
51475;SDS011;37554;50.362;7.568;2022-07-23T06:56:27;11.20;;;8.40;;
51475;SDS011;37554;50.362;7.568;2022-07-23T06:58:53;9.82;;;7.53;;
51475;SDS011;37554;50.362;7.568;2022-07-23T07:01:18;7.97;;;6.97;;
51475;SDS011;37554;50.362;7.568;2022-07-23T07:03:44;9.35;;;7.90;;
51475;SDS011;37554;50.362;7.568;2022-07-23T07:06:10;9.38;;;7.28;;
51475;SDS011;37554;50.362;7.568;2022-07-23T07:08:35;9.15;;;7.35;;
51475;SDS011;37554;50.362;7.568;2022-07-23T07:11:01;6.95;;;6.25;;
51475;SDS011;37554;50.362;7.568;2022-07-23T07:13:28;7.40;;;6.40;;
51475;SDS011;37554;50.362;7.568;2022-07-23T07:15:53;7.82;;;7.00;;
51475;SDS011;37554;50.362;7.568;2022-07-23T07:18:19;7.78;;;6.97;;
51475;SDS011;37554;50.362;7.568;2022-07-23T07:20:44;7.57;;;6.88;;
51475;SDS011;37554;50.362;7.568;2022-07-23T07:23:10;9.20;;;7.85;;
51475;SDS011;37554;50.362;7.568;2022-07-23T07:25:37;9.07;;;8.02;;
51475;SDS011;37554;50.362;7.568;2022-07-23T07:28:02;12.07;;;7.72;;
51475;SDS011;37554;50.362;7.568;2022-07-23T07:30:28;9.32;;;8.32;;
51475;SDS011;37554;50.362;7.568;2022-07-23T07:32:54;9.95;;;8.00;;
51475;SDS011;37554;50.362;7.568;2022-07-23T07:35:19;9.55;;;8.32;;
51475;SDS011;37554;50.362;7.568;2022-07-23T07:37:45;8.82;;;7.93;;
51475;SDS011;37554;50.362;7.568;2022-07-23T07:40:11;10.00;;;7.68;;
51475;SDS011;37554;50.362;7.568;2022-07-23T07:42:46;9.25;;;7.88;;
51475;SDS011;37554;50.362;7.568;2022-07-23T07:45:13;9.75;;;8.07;;
51475;SDS011;37554;50.362;7.568;2022-07-23T07:47:39;9.20;;;7.97;;
51475;SDS011;37554;50.362;7.568;2022-07-23T07:50:04;9.50;;;8.32;;
51475;SDS011;37554;50.362;7.568;2022-07-23T07:52:30;8.05;;;7.25;;
51475;SDS011;37554;50.362;7.568;2022-07-23T07:54:56;8.25;;;7.00;;
51475;SDS011;37554;50.362;7.568;2022-07-23T07:57:21;7.53;;;6.88;;
51475;SDS011;37554;50.362;7.568;2022-07-23T07:59:47;9.10;;;6.53;;
51475;SDS011;37554;50.362;7.568;2022-07-23T08:02:12;8.18;;;7.28;;
51475;SDS011;37554;50.362;7.568;2022-07-23T08:04:38;8.57;;;6.30;;
51475;SDS011;37554;50.362;7.568;2022-07-23T08:07:04;11.98;;;7.18;;
51475;SDS011;37554;50.362;7.568;2022-07-23T08:09:29;8.15;;;6.00;;
51475;SDS011;37554;50.362;7.568;2022-07-23T08:11:55;6.85;;;6.18;;
51475;SDS011;37554;50.362;7.568;2022-07-23T08:14:20;8.73;;;6.30;;
51475;SDS011;37554;50.362;7.568;2022-07-23T08:16:46;7.47;;;5.38;;
51475;SDS011;37554;50.362;7.568;2022-07-23T08:19:11;5.63;;;4.53;;
51475;SDS011;37554;50.362;7.568;2022-07-23T08:21:37;6.47;;;4.68;;
51475;SDS011;37554;50.362;7.568;2022-07-23T08:24:03;4.93;;;4.32;;
51475;SDS011;37554;50.362;7.568;2022-07-23T08:26:28;4.18;;;3.78;;
51475;SDS011;37554;50.362;7.568;2022-07-23T08:28:54;4.85;;;4.35;;
51475;SDS011;37554;50.362;7.568;2022-07-23T08:31:20;5.32;;;4.47;;
51475;SDS011;37554;50.362;7.568;2022-07-23T08:33:45;6.03;;;4.97;;
51475;SDS011;37554;50.362;7.568;2022-07-23T08:36:11;5.38;;;4.88;;
51475;SDS011;37554;50.362;7.568;2022-07-23T08:38:36;5.68;;;5.00;;
51475;SDS011;37554;50.362;7.568;2022-07-23T08:41:02;5.00;;;4.50;;
51475;SDS011;37554;50.362;7.568;2022-07-23T08:43:30;6.82;;;5.07;;
51475;SDS011;37554;50.362;7.568;2022-07-23T08:45:58;5.55;;;5.05;;
51475;SDS011;37554;50.362;7.568;2022-07-23T08:48:25;5.50;;;4.95;;
51475;SDS011;37554;50.362;7.568;2022-07-23T08:50:56;4.93;;;4.45;;
51475;SDS011;37554;50.362;7.568;2022-07-23T08:53:26;4.47;;;4.00;;
51475;SDS011;37554;50.362;7.568;2022-07-23T08:55:58;5.13;;;4.50;;
51475;SDS011;37554;50.362;7.568;2022-07-23T08:58:26;5.15;;;4.50;;
51475;SDS011;37554;50.362;7.568;2022-07-23T09:00:52;5.93;;;4.13;;
51475;SDS011;37554;50.362;7.568;2022-07-23T09:03:18;4.50;;;4.13;;
51475;SDS011;37554;50.362;7.568;2022-07-23T09:05:46;5.53;;;4.00;;
51475;SDS011;37554;50.362;7.568;2022-07-23T09:10:58;4.72;;;4.30;;
51475;SDS011;37554;50.362;7.568;2022-07-23T09:13:41;4.95;;;4.07;;
51475;SDS011;37554;50.362;7.568;2022-07-23T09:16:30;4.78;;;3.88;;
51475;SDS011;37554;50.362;7.568;2022-07-23T09:21:30;4.35;;;3.30;;
51475;SDS011;37554;50.362;7.568;2022-07-23T09:34:13;3.00;;;2.42;;
51475;SDS011;37554;50.362;7.568;2022-07-23T09:36:39;4.65;;;2.60;;
51475;SDS011;37554;50.362;7.568;2022-07-23T09:39:06;2.40;;;2.20;;
51475;SDS011;37554;50.362;7.568;2022-07-23T09:41:36;2.50;;;1.95;;
51475;SDS011;37554;50.362;7.568;2022-07-23T09:44:10;4.07;;;2.40;;
51475;SDS011;37554;50.362;7.568;2022-07-23T09:46:46;5.25;;;2.70;;
51475;SDS011;37554;50.362;7.568;2022-07-23T09:49:14;3.15;;;2.35;;
51475;SDS011;37554;50.362;7.568;2022-07-23T09:51:46;4.68;;;2.30;;
51475;SDS011;37554;50.362;7.568;2022-07-23T09:54:26;2.63;;;2.15;;
51475;SDS011;37554;50.362;7.568;2022-07-23T09:56:53;3.90;;;2.03;;
51475;SDS011;37554;50.362;7.568;2022-07-23T09:59:22;4.45;;;2.70;;
51475;SDS011;37554;50.362;7.568;2022-07-23T10:01:54;3.05;;;2.45;;
51475;SDS011;37554;50.362;7.568;2022-07-23T10:04:22;4.03;;;2.08;;
51475;SDS011;37554;50.362;7.568;2022-07-23T10:06:51;4.18;;;2.10;;
51475;SDS011;37554;50.362;7.568;2022-07-23T10:09:30;3.47;;;2.50;;
51475;SDS011;37554;50.362;7.568;2022-07-23T10:12:02;5.10;;;3.10;;
51475;SDS011;37554;50.362;7.568;2022-07-23T10:14:47;4.43;;;2.20;;
51475;SDS011;37554;50.362;7.568;2022-07-23T10:17:13;2.13;;;1.98;;
51475;SDS011;37554;50.362;7.568;2022-07-23T10:19:40;6.05;;;3.10;;
51475;SDS011;37554;50.362;7.568;2022-07-23T10:22:07;1.98;;;1.83;;
51475;SDS011;37554;50.362;7.568;2022-07-23T10:27:37;2.92;;;2.03;;
51475;SDS011;37554;50.362;7.568;2022-07-23T10:30:15;2.83;;;1.88;;
51475;SDS011;37554;50.362;7.568;2022-07-23T10:33:12;2.70;;;2.03;;
51475;SDS011;37554;50.362;7.568;2022-07-23T10:35:53;3.38;;;2.17;;
51475;SDS011;37554;50.362;7.568;2022-07-23T10:38:33;3.47;;;1.55;;
51475;SDS011;37554;50.362;7.568;2022-07-23T10:41:30;4.28;;;1.75;;
51475;SDS011;37554;50.362;7.568;2022-07-23T10:44:08;2.58;;;1.80;;
51475;SDS011;37554;50.362;7.568;2022-07-23T10:49:38;2.88;;;1.48;;
51475;SDS011;37554;50.362;7.568;2022-07-23T10:52:25;2.05;;;1.55;;
51475;SDS011;37554;50.362;7.568;2022-07-23T10:54:55;1.80;;;1.60;;
51475;SDS011;37554;50.362;7.568;2022-07-23T10:57:50;1.65;;;1.55;;
51475;SDS011;37554;50.362;7.568;2022-07-23T11:00:19;2.63;;;1.60;;
51475;SDS011;37554;50.362;7.568;2022-07-23T11:02:47;2.45;;;1.70;;
51475;SDS011;37554;50.362;7.568;2022-07-23T11:05:15;1.70;;;1.33;;
51475;SDS011;37554;50.362;7.568;2022-07-23T11:10:33;3.08;;;2.17;;
51475;SDS011;37554;50.362;7.568;2022-07-23T11:24:14;2.05;;;1.95;;
51475;SDS011;37554;50.362;7.568;2022-07-23T11:32:03;2.17;;;1.83;;
51475;SDS011;37554;50.362;7.568;2022-07-23T11:37:02;2.95;;;1.88;;
51475;SDS011;37554;50.362;7.568;2022-07-23T11:39:29;2.30;;;2.10;;
51475;SDS011;37554;50.362;7.568;2022-07-23T11:41:57;2.10;;;1.63;;
51475;SDS011;37554;50.362;7.568;2022-07-23T11:44:27;2.13;;;1.75;;
51475;SDS011;37554;50.362;7.568;2022-07-23T11:46:58;2.25;;;1.80;;
51475;SDS011;37554;50.362;7.568;2022-07-23T11:49:25;2.53;;;1.67;;
51475;SDS011;37554;50.362;7.568;2022-07-23T11:52:08;1.73;;;1.63;;
51475;SDS011;37554;50.362;7.568;2022-07-23T11:54:37;3.75;;;1.70;;
51475;SDS011;37554;50.362;7.568;2022-07-23T11:57:13;2.55;;;1.73;;
51475;SDS011;37554;50.362;7.568;2022-07-23T11:59:39;4.65;;;2.00;;
51475;SDS011;37554;50.362;7.568;2022-07-23T12:02:06;3.05;;;1.98;;
51475;SDS011;37554;50.362;7.568;2022-07-23T12:12:42;6.15;;;1.77;;
51475;SDS011;37554;50.362;7.568;2022-07-23T12:15:11;2.67;;;2.08;;
51475;SDS011;37554;50.362;7.568;2022-07-23T12:17:39;2.35;;;2.15;;
51475;SDS011;37554;50.362;7.568;2022-07-23T12:20:07;2.20;;;2.00;;
51475;SDS011;37554;50.362;7.568;2022-07-23T12:25:06;2.05;;;1.70;;
51475;SDS011;37554;50.362;7.568;2022-07-23T12:27:33;2.95;;;1.90;;
51475;SDS011;37554;50.362;7.568;2022-07-23T12:30:14;4.97;;;2.30;;
51475;SDS011;37554;50.362;7.568;2022-07-23T12:32:44;4.38;;;1.70;;
51475;SDS011;37554;50.362;7.568;2022-07-23T12:35:11;2.22;;;2.03;;
51475;SDS011;37554;50.362;7.568;2022-07-23T12:37:38;2.03;;;1.92;;
51475;SDS011;37554;50.362;7.568;2022-07-23T12:43:40;2.17;;;1.70;;
51475;SDS011;37554;50.362;7.568;2022-07-23T12:46:06;2.30;;;2.03;;
51475;SDS011;37554;50.362;7.568;2022-07-23T12:48:34;3.88;;;2.17;;
51475;SDS011;37554;50.362;7.568;2022-07-23T12:51:09;2.13;;;1.92;;
51475;SDS011;37554;50.362;7.568;2022-07-23T12:53:46;2.65;;;2.10;;
51475;SDS011;37554;50.362;7.568;2022-07-23T12:56:14;3.30;;;2.20;;
51475;SDS011;37554;50.362;7.568;2022-07-23T13:01:08;3.53;;;2.25;;
51475;SDS011;37554;50.362;7.568;2022-07-23T13:03:37;2.20;;;2.00;;
51475;SDS011;37554;50.362;7.568;2022-07-23T13:06:06;3.58;;;2.30;;
51475;SDS011;37554;50.362;7.568;2022-07-23T13:08:33;3.88;;;2.00;;
51475;SDS011;37554;50.362;7.568;2022-07-23T13:11:00;2.88;;;2.42;;
51475;SDS011;37554;50.362;7.568;2022-07-23T13:13:29;2.70;;;2.05;;
51475;SDS011;37554;50.362;7.568;2022-07-23T13:15:56;4.80;;;2.13;;
51475;SDS011;37554;50.362;7.568;2022-07-23T13:18:22;3.67;;;2.20;;
51475;SDS011;37554;50.362;7.568;2022-07-23T13:20:48;3.05;;;1.95;;
51475;SDS011;37554;50.362;7.568;2022-07-23T13:23:15;1.90;;;1.80;;
51475;SDS011;37554;50.362;7.568;2022-07-23T13:25:42;2.53;;;2.10;;
51475;SDS011;37554;50.362;7.568;2022-07-23T13:28:07;2.95;;;2.40;;
51475;SDS011;37554;50.362;7.568;2022-07-23T13:30:33;3.55;;;2.05;;
51475;SDS011;37554;50.362;7.568;2022-07-23T13:32:59;4.22;;;2.20;;
51475;SDS011;37554;50.362;7.568;2022-07-23T13:35:25;4.75;;;2.50;;
51475;SDS011;37554;50.362;7.568;2022-07-23T13:37:51;2.78;;;2.17;;
51475;SDS011;37554;50.362;7.568;2022-07-23T13:40:16;2.53;;;2.10;;
51475;SDS011;37554;50.362;7.568;2022-07-23T13:42:42;2.60;;;2.40;;
51475;SDS011;37554;50.362;7.568;2022-07-23T13:45:08;4.07;;;2.40;;
51475;SDS011;37554;50.362;7.568;2022-07-23T13:47:34;2.80;;;2.17;;
51475;SDS011;37554;50.362;7.568;2022-07-23T13:50:00;2.60;;;2.40;;
51475;SDS011;37554;50.362;7.568;2022-07-23T13:52:25;3.92;;;2.17;;
51475;SDS011;37554;50.362;7.568;2022-07-23T13:54:51;2.50;;;1.90;;
51475;SDS011;37554;50.362;7.568;2022-07-23T13:57:17;2.55;;;2.30;;
51475;SDS011;37554;50.362;7.568;2022-07-23T13:59:42;4.07;;;2.50;;
51475;SDS011;37554;50.362;7.568;2022-07-23T14:02:08;3.50;;;2.10;;
51475;SDS011;37554;50.362;7.568;2022-07-23T14:04:34;2.58;;;2.38;;
51475;SDS011;37554;50.362;7.568;2022-07-23T14:07:00;2.95;;;2.10;;
51475;SDS011;37554;50.362;7.568;2022-07-23T14:09:26;3.05;;;2.70;;
51475;SDS011;37554;50.362;7.568;2022-07-23T14:11:52;2.60;;;2.20;;
51475;SDS011;37554;50.362;7.568;2022-07-23T14:14:17;3.45;;;2.35;;
51475;SDS011;37554;50.362;7.568;2022-07-23T14:16:43;2.50;;;2.30;;
51475;SDS011;37554;50.362;7.568;2022-07-23T14:19:09;3.17;;;2.60;;
51475;SDS011;37554;50.362;7.568;2022-07-23T14:21:35;2.67;;;2.03;;
51475;SDS011;37554;50.362;7.568;2022-07-23T14:24:02;3.72;;;2.30;;
51475;SDS011;37554;50.362;7.568;2022-07-23T14:26:28;3.17;;;2.20;;
51475;SDS011;37554;50.362;7.568;2022-07-23T14:28:54;3.10;;;2.15;;
51475;SDS011;37554;50.362;7.568;2022-07-23T14:31:19;3.50;;;2.50;;
51475;SDS011;37554;50.362;7.568;2022-07-23T14:33:45;3.65;;;2.47;;
51475;SDS011;37554;50.362;7.568;2022-07-23T14:36:10;2.78;;;2.00;;
51475;SDS011;37554;50.362;7.568;2022-07-23T14:38:36;3.65;;;2.60;;
51475;SDS011;37554;50.362;7.568;2022-07-23T14:41:02;3.42;;;2.10;;
51475;SDS011;37554;50.362;7.568;2022-07-23T14:43:31;2.95;;;2.35;;
51475;SDS011;37554;50.362;7.568;2022-07-23T14:45:57;2.72;;;2.20;;
51475;SDS011;37554;50.362;7.568;2022-07-23T14:48:23;4.25;;;2.35;;
51475;SDS011;37554;50.362;7.568;2022-07-23T14:50:49;3.28;;;2.38;;
51475;SDS011;37554;50.362;7.568;2022-07-23T14:53:14;2.55;;;2.20;;
51475;SDS011;37554;50.362;7.568;2022-07-23T14:55:40;2.80;;;2.38;;
51475;SDS011;37554;50.362;7.568;2022-07-23T14:58:06;4.28;;;2.53;;
51475;SDS011;37554;50.362;7.568;2022-07-23T15:00:31;3.42;;;2.80;;
51475;SDS011;37554;50.362;7.568;2022-07-23T15:02:57;3.80;;;2.53;;
51475;SDS011;37554;50.362;7.568;2022-07-23T15:05:23;2.25;;;2.05;;
51475;SDS011;37554;50.362;7.568;2022-07-23T15:07:49;3.70;;;2.25;;
51475;SDS011;37554;50.362;7.568;2022-07-23T15:10:14;2.70;;;2.45;;
51475;SDS011;37554;50.362;7.568;2022-07-23T15:12:40;2.40;;;2.20;;
51475;SDS011;37554;50.362;7.568;2022-07-23T15:15:06;2.38;;;2.03;;
51475;SDS011;37554;50.362;7.568;2022-07-23T15:17:32;2.92;;;2.53;;
51475;SDS011;37554;50.362;7.568;2022-07-23T15:19:58;2.47;;;2.28;;
51475;SDS011;37554;50.362;7.568;2022-07-23T15:22:24;4.28;;;2.65;;
51475;SDS011;37554;50.362;7.568;2022-07-23T15:24:49;3.30;;;2.60;;
51475;SDS011;37554;50.362;7.568;2022-07-23T15:27:15;3.22;;;2.50;;
51475;SDS011;37554;50.362;7.568;2022-07-23T15:29:42;2.33;;;2.13;;
51475;SDS011;37554;50.362;7.568;2022-07-23T15:32:11;4.03;;;2.45;;
51475;SDS011;37554;50.362;7.568;2022-07-23T15:34:37;5.05;;;2.55;;
51475;SDS011;37554;50.362;7.568;2022-07-23T15:37:04;4.28;;;2.30;;
51475;SDS011;37554;50.362;7.568;2022-07-23T15:39:32;2.50;;;2.30;;
51475;SDS011;37554;50.362;7.568;2022-07-23T15:42:02;3.00;;;2.70;;
51475;SDS011;37554;50.362;7.568;2022-07-23T15:44:28;4.40;;;2.53;;
51475;SDS011;37554;50.362;7.568;2022-07-23T15:46:54;3.05;;;2.35;;